Flight Track Log - Related Links

Times and Time Zones

All times are in EDT time to prevent confusion due to time zone crossing. See the EGF4211 flight status page for this flight to view local times or setup timezone preferences in your user account.

Time Position Orientation Groundspeed Altitude Reporting Facility
EDT Latitude Longitude Course Direction KTS MPH feet Rate Location/Type
Mon 04:39:26 PM 41.9667 -87.8667 346° North 159 183 2,000  Level Chicago TRACON
Mon 04:40:32 PM 41.9833 -87.8000 71° East 222 255 4,200 2,073 Climbing Chicago TRACON
Mon 04:41:00 PM 42.2513 -87.9920 350° North  Level FlightAware Approximate
Mon 04:42:00 PM 42.3478 -88.0161 350° North  Level FlightAware Approximate
Mon 04:42:37 PM 42.1058 -87.7431 19° North 275 316 8,600  Level Chicago Center
Mon 04:43:00 PM 42.4413 -88.0549 352° North  Level FlightAware Approximate
Mon 04:43:39 PM 42.1889 -87.7458 359° North 296 341 10,800  Level Chicago Center
Mon 04:44:00 PM 42.5342 -88.0892 346° North  Level FlightAware Approximate
Mon 04:44:41 PM 42.2744 -87.7444 North 309 356 12,800  Level Chicago Center
Mon 04:45:43 PM 42.3744 -87.7575 354° North 342 394 13,800 1,258 Climbing Chicago Center
Mon 04:46:45 PM 42.4786 -87.8311 332° Northwest 365 420 15,400 1,500 Climbing Chicago Center
Mon 04:47:47 PM 42.5678 -87.8972 331° Northwest 366 421 16,900 1,403 Climbing Chicago Center
Mon 04:48:49 PM 42.6597 -87.9600 333° Northwest 369 425 18,300 1,403 Climbing Chicago Center
Mon 04:49:51 PM 42.7508 -88.0239 333° Northwest 369 425 19,800 1,452 Climbing Chicago Center
Mon 04:50:53 PM 42.8431 -88.0897 332° Northwest 371 427 21,300 1,597 Climbing Chicago Center
Mon 04:51:55 PM 42.9517 -88.1672 332° Northwest 376 433 23,100 1,597 Climbing Chicago Center
Mon 04:52:57 PM 43.0447 -88.2333 333° Northwest 376 433 24,600 1,500 Climbing Chicago Center
Mon 04:53:59 PM 43.1286 -88.3142 325° Northwest 381 438 26,200 1,500 Climbing Chicago Center
Mon 04:55:01 PM 43.1828 -88.4300 303° West 358 412 27,700 1,500 Climbing Chicago Center
Mon 04:56:03 PM 43.2308 -88.5461 300° West 348 400 29,300 1,500 Climbing Chicago Center
Mon 04:57:05 PM 43.2792 -88.6611 300° West 345 397 30,800 1,452 Climbing Chicago Center
Mon 04:58:07 PM 43.3278 -88.7731 301° West 338 389 32,300 1,355 Climbing Chicago Center
Mon 04:59:09 PM 43.3756 -88.8842 301° West 336 387 33,600 823 Climbing Chicago Center
Mon 05:00:11 PM 43.4319 -89.0164 300° West 340 391 34,000 484 Climbing Chicago Center
Mon 05:01:13 PM 43.4825 -89.1394 300° West 364 419 34,600 726 Climbing Chicago Center
Mon 05:02:15 PM 43.5342 -89.2611 300° West 366 421 35,500 677 Climbing Chicago Center
Mon 05:03:17 PM 43.5839 -89.3789 300° West 359 413 36,000 242 Climbing Chicago Center
Mon 05:04:19 PM 43.6342 -89.5008 300° West 363 418 36,000  Level Chicago Center
Mon 05:04:52 PM 43.6675 -89.5819 300° West 363 418 36,000  Level Minneapolis Center
Mon 05:05:54 PM 43.7175 -89.7008 300° West 361 415 36,000  Level Minneapolis Center
Mon 05:06:56 PM 43.7658 -89.8181 300° West 353 406 36,000  Level Minneapolis Center
Mon 05:07:58 PM 43.8147 -89.9325 301° West 348 400 36,000  Level Minneapolis Center
Mon 05:09:00 PM 43.8608 -90.0464 299° West 340 391 36,000  Level Minneapolis Center
Mon 05:10:02 PM 43.9069 -90.1606 299° West 339 390 36,000  Level Minneapolis Center
Mon 05:11:03 PM 43.9608 -90.2939 299° West 339 390 36,000  Level Minneapolis Center
Mon 05:12:05 PM 44.0072 -90.4089 299° West 341 392 36,000  Level Minneapolis Center
Mon 05:13:07 PM 44.0539 -90.5239 299° West 342 394 36,000  Level Minneapolis Center
Mon 05:14:09 PM 44.1003 -90.6367 300° West 342 394 36,000  Level Minneapolis Center
Mon 05:15:11 PM 44.1458 -90.7506 299° West 341 392 36,000  Level Minneapolis Center
Mon 05:16:13 PM 44.1906 -90.8658 298° West 341 392 36,000  Level Minneapolis Center
Mon 05:17:14 PM 44.2467 -91.0039 300° West 343 395 36,000  Level Minneapolis Center
Mon 05:18:16 PM 44.2928 -91.1197 299° West 345 397 36,000  Level Minneapolis Center
Mon 05:19:18 PM 44.3358 -91.2314 298° West 344 396 36,000  Level Minneapolis Center
Mon 05:20:20 PM 44.3817 -91.3492 299° West 346 398 36,000 -48 Level Minneapolis Center
Mon 05:21:22 PM 44.4375 -91.4894 299° West 346 398 35,900 -488 Descending Minneapolis Center
Mon 05:22:23 PM 44.4828 -91.6061 299° West 343 395 35,000 -878 Descending Minneapolis Center
Mon 05:23:25 PM 44.5272 -91.7250 298° West 344 396 34,100 -484 Descending Minneapolis Center
Mon 05:24:27 PM 44.5753 -91.8492 299° West 358 412 34,000 -48 Descending Minneapolis Center
Mon 05:25:29 PM 44.6236 -91.9728 299° West 362 417 34,000  Level Minneapolis Center
Mon 05:26:31 PM 44.6711 -92.0994 298° West 366 421 34,000  Level Minneapolis Center
Mon 05:27:32 PM 44.7269 -92.2464 298° West 362 417 34,000  Level Minneapolis Center
Mon 05:28:34 PM 44.7736 -92.3708 298° West 361 415 34,000  Level Minneapolis Center
Mon 05:29:36 PM 44.8206 -92.4950 298° West 362 417 34,000  Level Minneapolis Center
Mon 05:30:38 PM 44.8669 -92.6186 298° West 360 414 34,000  Level Minneapolis Center
Mon 05:31:40 PM 44.9133 -92.7419 298° West 359 413 34,000  Level Minneapolis Center
Mon 05:32:41 PM 44.9597 -92.8650 298° West 360 414 34,000 -244 Level Minneapolis Center
Mon 05:33:43 PM 45.0153 -93.0147 298° West 362 417 33,500 -774 Descending Minneapolis Center
Mon 05:34:45 PM 45.0617 -93.1419 297° West 368 423 32,400 -732 Descending Minneapolis Center
Mon 05:35:46 PM 45.1097 -93.2733 297° West 379 436 32,000 -195 Descending Minneapolis Center
Mon 05:36:48 PM 45.1611 -93.4047 299° West 384 442 32,000  Level Minneapolis Center
Mon 05:37:50 PM 45.2269 -93.5256 308° West 387 445 32,000  Level Minneapolis Center
Mon 05:38:51 PM 45.3086 -93.6728 308° West 395 455 32,000  Level Minneapolis Center
Mon 05:39:53 PM 45.3753 -93.7969 307° West 397 457 32,000  Level Minneapolis Center
Mon 05:40:55 PM 45.4439 -93.9233 308° West 403 464 32,000  Level Minneapolis Center
Mon 05:41:57 PM 45.5119 -94.0489 308° West 404 465 32,000  Level Minneapolis Center
Mon 05:42:58 PM 45.5794 -94.1756 307° West 403 464 32,000  Level Minneapolis Center
Mon 05:44:00 PM 45.6461 -94.3019 307° West 399 459 32,000  Level Minneapolis Center
Mon 05:45:01 PM 45.7253 -94.4483 308° West 393 452 32,000  Level Minneapolis Center
Mon 05:46:03 PM 45.7892 -94.5733 306° West 391 450 32,000  Level Minneapolis Center
Mon 05:47:05 PM 45.8536 -94.6961 307° West 388 447 32,000  Level Minneapolis Center
Mon 05:48:06 PM 45.9183 -94.8203 307° West 390 449 32,000  Level Minneapolis Center
Mon 05:49:08 PM 45.9831 -94.9469 306° West 393 452 32,000  Level Minneapolis Center
Mon 05:50:09 PM 46.0558 -95.0861 307° West 395 455 32,000 -244 Level Minneapolis Center
Mon 05:51:11 PM 46.1214 -95.2136 307° West 397 457 31,500 -1,355 Descending Minneapolis Center
Mon 05:52:13 PM 46.1939 -95.3575 306° West 407 468 29,200 -2,439 Descending Minneapolis Center
Mon 05:53:14 PM 46.2581 -95.4828 307° West 422 486 26,500 -2,780 Descending Minneapolis Center
Mon 05:54:16 PM 46.3286 -95.6219 306° West 430 495 23,500 -2,927 Descending Minneapolis Center
Mon 05:55:17 PM 46.3983 -95.7586 307° West 424 488 20,500 -2,976 Descending Minneapolis Center
Mon 05:56:19 PM 46.4711 -95.9067 306° West 391 450 17,400 -3,073 Descending Minneapolis Center
Mon 05:57:20 PM 46.5361 -96.0336 307° West 377 434 14,200 -3,024 Descending Minneapolis Center
Mon 05:58:22 PM 46.5950 -96.1539 305° West 352 405 11,200 -1,935 Descending Minneapolis Center
Mon 05:59:24 PM 46.6403 -96.2533 304° West 305 351 10,200 -1,403 Descending Minneapolis Center
Mon 06:00:26 PM 46.6703 -96.3542 293° West 261 300 8,300 -1,756 Descending Minneapolis Center
Mon 06:01:27 PM 46.6989 -96.4561 292° West 259 298 6,600 -1,122 Descending Minneapolis Center
Mon 06:02:29 PM 46.7106 -96.5558 280° West 239 275 6,000 -293 Descending Minneapolis Center
Mon 06:03:30 PM 46.7139 -96.6533 273° West 250 288 6,000  Level Minneapolis Center

Login

Don't have an account? Register now (free) for customized features, flight alerts, and more!